Sycamore Square, Virginia
Current Conditions -  °F | °C
As of 1:54 AM on Sunday 26 Oct 2014 (Local Time) from KOFP Reporting Station
Clear Clear  
Wind Chill: 57°   Ceiling: Unl
Heat Index: 57°   Visibility: 10mi
Dew Point: 46°   Wind: 7mph
Humidity: 67%   Direction: 240°WSW
Pressure: 29.76"   Gusts: NA
Location:  37.5382°N, 77.6692°W
Report Text: KOFP 260554Z AUTO 24006KT 10SM CLR 14/08 A2976 RMK AO2 SLP077 T01390078 10167 20139 56005
Loading
Personal Weather Stations






























Interactive Weather Map
Tropical Storm Tracking
New forecast layout! Learn more

10-Day Weather Forecast

Advertisements
Track Severe Weather on mobile